Time;durP1;ratioP1;P1;durP2;ratioP2;P2;SDS_P1;SDS_P2;PMS_P1;PMS_P2;Temp;Humidity;BMP_temperature;BMP_pressure;BME280_temperature;BME280_humidity;BME280_pressure;Samples;Min_cycle;Max_cycle;Signal;HPM_P1;HPM_P2
2022/02/12 00:00:57;;;;;;;73.53;54.25;;;;;;;6.77;67.16;101092.97;5045774;28;20041;-72
2022/02/12 00:03:24;;;;;;;70.05;48.97;;;;;;;7.02;66.05;101098.81;5046376;28;20052;-71
2022/02/12 00:05:50;;;;;;;71.15;51.35;;;;;;;6.70;66.63;101094.53;5045236;28;20388;-71
2022/02/12 00:08:15;;;;;;;69.63;52.00;;;;;;;6.75;66.98;101111.19;5046997;28;20036;-71
2022/02/12 00:10:40;;;;;;;74.35;52.13;;;;;;;6.63;67.02;101100.41;5045555;28;20053;-72
2022/02/12 00:13:11;;;;;;;78.90;47.92;;;;;;;6.65;67.16;101118.69;5045293;28;20028;-71
2022/02/12 00:15:41;;;;;;;58.30;44.42;;;;;;;6.76;66.85;101133.78;5042194;28;20123;-73
2022/02/12 00:18:07;;;;;;;61.63;45.13;;;;;;;6.86;66.56;101107.94;5043752;28;20036;-72
2022/02/12 00:20:34;;;;;;;56.83;44.95;;;;;;;6.87;66.15;101125.38;5065126;28;20025;-72
2022/02/12 00:22:59;;;;;;;61.70;45.15;;;;;;;6.75;66.24;101105.97;5058371;28;20532;-72
2022/02/12 00:25:25;;;;;;;69.60;48.20;;;;;;;6.73;66.46;101102.41;5045332;28;20059;-73
2022/02/12 00:27:50;;;;;;;72.03;48.53;;;;;;;6.72;66.84;101146.75;5023303;28;20053;-72
2022/02/12 00:30:16;;;;;;;55.67;44.17;;;;;;;6.65;66.48;101136.94;5052271;28;20064;-72
2022/02/12 00:32:47;;;;;;;56.15;42.58;;;;;;;6.68;66.85;101150.09;5046831;28;20028;-72
2022/02/12 00:35:13;;;;;;;58.25;41.38;;;;;;;6.43;67.46;101140.69;5061075;28;20079;-73
2022/02/12 00:37:38;;;;;;;58.72;43.42;;;;;;;6.44;68.58;101126.81;5044530;28;20489;-73
2022/02/12 00:40:04;;;;;;;59.33;40.53;;;;;;;6.31;67.58;101136.88;5045829;28;20302;-72
2022/02/12 00:43:19;;;;;;;59.13;41.05;;;;;;;6.00;68.34;101129.03;5043469;28;20481;-72
2022/02/12 00:45:53;;;;;;;49.05;37.95;;;;;;;6.16;67.21;101123.44;5047376;28;20036;-72
2022/02/12 00:48:39;;;;;;;47.65;37.45;;;;;;;6.18;66.39;101113.94;5048082;28;20094;-72
2022/02/12 00:51:28;;;;;;;45.13;32.22;;;;;;;6.19;65.81;101114.81;5063965;28;20459;-72
2022/02/12 00:53:53;;;;;;;50.03;28.83;;;;;;;6.47;64.96;101126.91;5046427;28;20055;-71
2022/02/12 00:56:18;;;;;;;33.28;26.25;;;;;;;6.25;64.29;101100.25;5060634;28;20422;-71
2022/02/12 00:58:44;;;;;;;35.00;25.67;;;;;;;6.61;63.00;101114.25;5026176;28;20151;-71
2022/02/12 01:01:09;;;;;;;36.30;25.63;;;;;;;6.64;62.13;101115.22;5040647;28;20063;-71
2022/02/12 01:03:35;;;;;;;34.83;24.65;;;;;;;6.58;61.91;101122.88;5044835;28;20040;-72
2022/02/12 01:06:01;;;;;;;29.60;22.60;;;;;;;6.85;62.37;101148.81;5045940;28;20033;-72
2022/02/12 01:08:26;;;;;;;30.98;21.48;;;;;;;6.51;62.80;101128.78;5043906;28;20029;-72
2022/02/12 01:10:52;;;;;;;30.77;22.55;;;;;;;6.77;62.20;101142.53;5057084;28;20055;-72
2022/02/12 01:13:18;;;;;;;28.80;23.08;;;;;;;6.47;62.49;101121.69;5042004;28;20095;-72
2022/02/12 01:15:44;;;;;;;30.20;23.08;;;;;;;6.35;63.17;101153.50;5044697;28;20477;-71
2022/02/12 01:18:11;;;;;;;29.52;23.15;;;;;;;6.29;62.59;101120.31;5039674;28;20127;-72
2022/02/12 01:20:37;;;;;;;32.20;24.88;;;;;;;6.42;62.39;101116.34;5043713;28;20036;-72
2022/02/12 01:23:03;;;;;;;32.50;24.55;;;;;;;6.21;62.77;101123.56;5042326;28;20052;-71
2022/02/12 01:25:28;;;;;;;33.10;27.08;;;;;;;6.38;62.61;101122.31;5052162;28;20120;-71
2022/02/12 01:27:54;;;;;;;33.22;24.55;;;;;;;6.39;62.53;101120.59;5040164;28;20060;-72
2022/02/12 01:30:20;;;;;;;32.67;24.95;;;;;;;6.42;62.39;101128.50;5042157;28;20060;-71
2022/02/12 01:32:45;;;;;;;36.75;25.08;;;;;;;6.41;63.21;101132.81;5041752;28;20487;-72
2022/02/12 01:35:12;;;;;;;40.70;24.20;;;;;;;6.26;63.30;101130.66;5044066;28;20110;-72
2022/02/12 01:37:39;;;;;;;34.33;24.17;;;;;;;6.21;64.10;101147.00;5042789;28;20048;-72
2022/02/12 01:40:08;;;;;;;37.20;23.92;;;;;;;6.32;63.53;101143.88;5042779;28;20049;-72
2022/02/12 01:42:34;;;;;;;34.50;24.10;;;;;;;6.28;63.11;101136.81;5039653;28;20037;-72
2022/02/12 01:45:01;;;;;;;35.50;26.50;;;;;;;6.18;63.38;101120.84;5042026;28;20060;-71
2022/02/12 01:47:27;;;;;;;32.63;23.95;;;;;;;5.95;64.12;101118.47;5047184;28;20024;-72
2022/02/12 01:49:53;;;;;;;41.25;24.95;;;;;;;5.84;65.48;101122.41;5036140;28;20059;-71
2022/02/12 01:52:20;;;;;;;39.90;24.40;;;;;;;5.80;64.91;101118.81;5042884;28;20469;-72
2022/02/12 01:54:47;;;;;;;34.00;23.83;;;;;;;6.09;65.12;101157.97;5045858;28;20048;-72
2022/02/12 01:57:12;;;;;;;34.08;24.17;;;;;;;5.92;64.98;101131.34;5038162;28;20156;-72
2022/02/12 01:59:40;;;;;;;30.75;24.90;;;;;;;5.71;65.22;101123.75;5041883;28;20033;-71
2022/02/12 02:02:25;;;;;;;35.25;23.98;;;;;;;5.72;65.03;101130.75;5057855;28;20416;-72
2022/02/12 02:04:59;;;;;;;35.95;22.80;;;;;;;5.92;63.99;101167.81;5044350;28;20130;-71
2022/02/12 02:08:13;;;;;;;34.38;23.08;;;;;;;6.16;63.16;101169.41;5042338;28;20039;-71
2022/02/12 02:10:38;;;;;;;34.03;23.37;;;;;;;6.04;64.32;101156.91;5041203;28;20049;-71
2022/02/12 02:13:03;;;;;;;33.33;23.67;;;;;;;5.93;64.45;101160.03;5040684;28;20068;-71
2022/02/12 02:15:29;;;;;;;34.20;23.95;;;;;;;5.74;65.07;101157.72;5045170;28;20037;-71
2022/02/12 02:18:17;;;;;;;31.00;22.85;;;;;;;5.67;64.92;101141.00;5040889;28;20473;-71
2022/02/12 02:20:42;;;;;;;33.17;22.70;;;;;;;5.87;64.75;101165.06;5038891;28;20102;-71
2022/02/12 02:23:08;;;;;;;29.40;20.80;;;;;;;5.80;64.81;101189.13;5043072;28;20407;-71
2022/02/12 02:25:34;;;;;;;29.70;24.48;;;;;;;5.47;65.19;101158.56;5040817;28;20041;-71
2022/02/12 02:27:59;;;;;;;32.70;23.38;;;;;;;5.59;64.54;101186.72;5048293;28;20114;-72
2022/02/12 02:30:27;;;;;;;31.17;22.63;;;;;;;5.17;65.19;101160.16;5034719;28;20038;-72
2022/02/12 02:32:52;;;;;;;32.63;21.77;;;;;;;5.35;65.38;101158.19;5035216;28;20110;-72
2022/02/12 02:35:19;;;;;;;36.58;24.33;;;;;;;5.61;64.95;101181.56;5033956;28;20476;-72
2022/02/12 02:38:05;;;;;;;31.90;23.60;;;;;;;5.65;64.79;101197.34;5041305;28;20321;-71
2022/02/12 02:40:30;;;;;;;29.08;23.05;;;;;;;5.53;65.04;101165.72;5040436;28;20036;-74
2022/02/12 02:42:56;;;;;;;32.13;22.10;;;;;;;5.45;65.49;101169.78;5036967;28;20461;-71
2022/02/12 02:45:21;;;;;;;30.20;23.05;;;;;;;5.46;65.52;101181.97;5034218;28;20043;-72
2022/02/12 02:47:47;;;;;;;34.35;22.80;;;;;;;5.51;65.55;101201.22;5034824;28;20475;-72
2022/02/12 02:56:00;;;;;;;26.83;21.30;;;;;;;5.04;66.04;101185.75;5038273;28;20048;-72
2022/02/12 02:58:46;;;;;;;30.75;20.98;;;;;;;5.20;65.17;101184.56;5050975;28;20487;-72
2022/02/12 03:01:18;;;;;;;32.30;24.67;;;;;;;5.57;64.90;101223.94;5037120;28;20483;-72
2022/02/12 03:03:46;;;;;;;30.55;20.98;;;;;;;5.37;65.51;101218.97;5035421;28;20087;-72
2022/02/12 03:06:15;;;;;;;25.58;21.95;;;;;;;5.14;65.56;101222.50;5029738;28;20792;-72
2022/02/12 03:08:41;;;;;;;37.92;23.17;;;;;;;5.21;65.48;101196.75;5033042;28;20372;-72
2022/02/12 03:11:08;;;;;;;29.98;23.55;;;;;;;5.33;65.81;101232.69;5030250;28;20048;-71
2022/02/12 03:13:34;;;;;;;30.33;22.00;;;;;;;4.99;65.40;101217.66;5038404;28;20068;-72
2022/02/12 03:16:00;;;;;;;26.83;21.13;;;;;;;5.05;65.47;101210.03;5037533;28;20044;-72
2022/02/12 03:18:27;;;;;;;32.33;23.20;;;;;;;5.17;65.59;101233.88;5031766;28;20046;-72
2022/02/12 03:20:52;;;;;;;31.15;23.55;;;;;;;4.97;65.48;101198.50;5035923;28;20464;-71
2022/02/12 03:23:18;;;;;;;33.55;22.85;;;;;;;5.11;65.49;101209.41;5040550;28;20048;-72
2022/02/12 03:25:43;;;;;;;33.30;23.08;;;;;;;4.97;65.56;101212.38;5033907;28;20535;-71
2022/02/12 03:28:10;;;;;;;31.45;21.25;;;;;;;5.06;66.14;101241.31;5064272;28;20038;-71
2022/02/12 03:30:42;;;;;;;30.80;22.83;;;;;;;4.71;66.59;101193.25;5036680;28;20047;-71
2022/02/12 03:33:08;;;;;;;39.88;24.55;;;;;;;4.84;66.58;101239.66;5031220;28;20072;-74
2022/02/12 03:35:34;;;;;;;37.47;24.58;;;;;;;4.62;66.66;101222.38;5036725;28;20448;-71
2022/02/12 03:38:07;;;;;;;32.95;23.65;;;;;;;4.93;66.29;101238.22;5036107;28;20041;-71
2022/02/12 03:40:38;;;;;;;38.00;24.95;;;;;;;4.98;66.37;101247.94;5042854;28;20110;-72
2022/02/12 03:43:05;;;;;;;37.47;23.13;;;;;;;4.71;66.75;101214.03;5038630;28;20139;-72
2022/02/12 03:45:31;;;;;;;29.08;23.55;;;;;;;4.82;67.06;101237.81;5024386;28;20051;-71
2022/02/12 03:47:56;;;;;;;39.55;23.17;;;;;;;4.86;66.79;101237.13;5040900;28;20033;-72
2022/02/12 03:50:22;;;;;;;39.63;24.48;;;;;;;4.82;66.54;101228.34;5039060;28;20487;-72
2022/02/12 03:52:49;;;;;;;31.85;24.17;;;;;;;4.67;67.02;101212.16;5042516;28;20491;-72
2022/02/12 03:55:15;;;;;;;31.52;25.50;;;;;;;4.51;67.92;101213.28;5062797;28;20037;-72
2022/02/12 03:57:41;;;;;;;30.98;22.17;;;;;;;4.22;68.89;101225.19;5037410;28;20045;-72
2022/02/12 04:00:17;;;;;;;34.50;22.67;;;;;;;4.23;68.60;101200.97;5042402;28;21107;-72
2022/02/12 04:02:43;;;;;;;40.40;23.90;;;;;;;4.47;68.59;101229.59;5051368;28;20025;-71
2022/02/12 04:05:10;;;;;;;36.60;25.08;;;;;;;4.40;68.29;101212.91;5047141;28;20075;-73
2022/02/12 04:07:38;;;;;;;40.58;26.48;;;;;;;4.33;68.26;101200.53;5046722;28;20063;-71
2022/02/12 04:10:05;;;;;;;40.42;25.58;;;;;;;4.28;68.98;101235.78;5047683;28;20064;-71
2022/02/12 04:12:31;;;;;;;38.50;25.90;;;;;;;4.11;69.07;101224.75;5044424;28;20667;-71
2022/02/12 04:14:56;;;;;;;36.92;25.10;;;;;;;4.41;69.07;101221.59;5044480;28;20025;-71
2022/02/12 04:17:24;;;;;;;38.85;24.77;;;;;;;4.47;69.15;101255.56;5057390;28;20061;-71
2022/02/12 04:19:50;;;;;;;34.85;24.08;;;;;;;4.56;68.74;101242.06;5040838;28;20029;-71
2022/02/12 04:22:16;;;;;;;33.60;24.92;;;;;;;4.42;68.99;101251.91;5044430;28;20491;-71
2022/02/12 04:24:41;;;;;;;35.15;25.38;;;;;;;4.30;69.21;101261.84;5043146;28;20037;-71
2022/02/12 04:27:06;;;;;;;36.67;25.33;;;;;;;4.32;68.76;101279.25;5043280;28;20094;-71
2022/02/12 04:29:32;;;;;;;32.08;25.15;;;;;;;4.53;68.47;101299.13;5042288;28;20373;-72
2022/02/12 04:31:57;;;;;;;36.25;24.25;;;;;;;4.53;69.35;101305.19;5055978;28;20094;-71
2022/02/12 04:34:23;;;;;;;42.25;28.50;;;;;;;4.41;69.22;101310.81;5047030;28;20045;-71
2022/02/12 04:36:50;;;;;;;35.90;26.75;;;;;;;4.36;68.82;101281.16;5041192;28;20045;-71
2022/02/12 04:39:27;;;;;;;35.80;27.15;;;;;;;4.52;68.04;101289.53;5042951;28;20041;-71
2022/02/12 04:41:53;;;;;;;34.40;26.13;;;;;;;4.50;68.11;101299.00;5056839;28;20036;-71
2022/02/12 04:44:18;;;;;;;37.05;28.45;;;;;;;4.50;69.31;101331.06;5041079;28;20094;-71
2022/02/12 04:46:44;;;;;;;36.28;26.60;;;;;;;4.52;69.95;101336.31;5040498;28;20361;-74
2022/02/12 04:49:26;;;;;;;39.90;27.08;;;;;;;4.47;68.99;101304.06;5041967;28;20130;-71
2022/02/12 04:51:52;;;;;;;37.13;28.15;;;;;;;4.59;68.04;101333.16;5045838;28;20036;-71
2022/02/12 04:54:17;;;;;;;41.13;28.35;;;;;;;4.53;68.05;101325.13;5057255;28;20049;-72
2022/02/12 04:56:43;;;;;;;30.88;25.50;;;;;;;4.42;68.05;101327.28;5045574;28;20033;-71
2022/02/12 04:59:09;;;;;;;33.20;28.20;;;;;;;4.23;68.39;101352.50;5045365;28;20020;-72
2022/02/12 05:01:34;;;;;;;37.60;29.38;;;;;;;4.29;68.57;101366.59;5038409;28;20037;-71
2022/02/12 05:04:00;;;;;;;42.80;28.98;;;;;;;4.06;69.24;101373.44;5033955;28;20045;-71
2022/02/12 05:06:26;;;;;;;38.35;30.40;;;;;;;4.11;68.92;101372.78;5048372;28;20045;-71
2022/02/12 05:08:51;;;;;;;44.33;31.08;;;;;;;4.16;68.66;101340.09;5041194;28;20052;-71
2022/02/12 05:11:17;;;;;;;40.10;30.85;;;;;;;4.37;68.69;101381.66;5035641;28;20051;-74
2022/02/12 05:13:42;;;;;;;45.67;32.03;;;;;;;4.27;69.25;101379.50;5051413;28;20037;-70
2022/02/12 05:16:08;;;;;;;38.22;29.35;;;;;;;4.06;69.12;101348.34;5052043;28;20041;-71
2022/02/12 05:18:34;;;;;;;36.65;27.83;;;;;;;4.04;69.79;101369.88;5039114;28;20567;-71
2022/02/12 05:21:15;;;;;;;39.60;31.35;;;;;;;4.20;68.69;101343.72;5038538;28;20111;-70
2022/02/12 05:23:41;;;;;;;40.13;32.50;;;;;;;4.08;68.54;101351.91;5056028;28;20025;-73
2022/02/12 05:26:06;;;;;;;50.65;33.88;;;;;;;3.79;69.22;101350.66;5036413;28;20392;-71
2022/02/12 05:28:32;;;;;;;43.75;33.58;;;;;;;3.61;70.15;101378.44;5039187;28;20163;-72
2022/02/12 05:30:57;;;;;;;43.30;35.92;;;;;;;3.69;70.06;101390.03;5058025;28;20057;-73
2022/02/12 05:33:25;;;;;;;46.92;34.78;;;;;;;3.41;70.48;101369.78;5047044;28;20480;-73
2022/02/12 05:35:51;;;;;;;51.75;34.70;;;;;;;3.83;69.88;101417.47;5041584;28;20025;-73
2022/02/12 05:38:17;;;;;;;45.22;36.70;;;;;;;3.85;69.87;101409.75;5044699;28;20029;-74
2022/02/12 05:40:43;;;;;;;58.00;38.60;;;;;;;3.52;70.27;101400.56;5046218;28;20040;-72
2022/02/12 05:43:09;;;;;;;46.78;40.20;;;;;;;3.53;70.92;101424.78;5036072;28;20140;-74
2022/02/12 05:45:34;;;;;;;56.15;41.08;;;;;;;3.82;70.55;101433.88;5036927;28;20037;-73
2022/02/12 05:48:00;;;;;;;58.97;47.15;;;;;;;3.37;71.17;101405.97;5041346;28;20425;-73
2022/02/12 05:50:29;;;;;;;101.68;66.50;;;;;;;3.56;70.36;101432.72;5040698;28;20035;-74
2022/02/12 05:52:56;;;;;;;82.60;59.03;;;;;;;3.63;70.15;101419.22;5043465;28;20017;-72
2022/02/12 05:55:22;;;;;;;71.65;52.03;;;;;;;3.72;69.99;101439.47;5041517;28;20377;-73
2022/02/12 05:57:48;;;;;;;68.45;45.80;;;;;;;3.65;69.88;101429.63;5036718;28;20045;-73
2022/02/12 06:00:14;;;;;;;58.45;44.55;;;;;;;3.79;69.23;101438.91;5039780;28;20690;-73
2022/02/12 06:02:40;;;;;;;55.10;41.78;;;;;;;3.89;69.23;101459.28;5038887;28;20033;-73
2022/02/12 06:05:05;;;;;;;49.70;39.40;;;;;;;3.87;69.77;101480.81;5055156;28;20098;-72
2022/02/12 06:07:31;;;;;;;52.47;38.97;;;;;;;4.04;68.87;101474.63;5055163;28;20072;-71
2022/02/12 06:09:56;;;;;;;47.55;38.42;;;;;;;3.69;69.00;101460.09;5039188;28;20052;-72
2022/02/12 06:12:22;;;;;;;50.17;37.75;;;;;;;3.78;69.76;101470.91;5039564;28;20048;-72
2022/02/12 06:14:48;;;;;;;56.10;40.90;;;;;;;3.98;69.10;101492.53;5035919;28;20041;-71
2022/02/12 06:17:14;;;;;;;51.67;39.03;;;;;;;4.19;67.92;101493.50;5053526;28;20483;-73
2022/02/12 06:19:39;;;;;;;62.45;41.00;;;;;;;4.32;68.18;101523.47;5042466;28;20457;-72
2022/02/12 06:22:05;;;;;;;51.42;37.63;;;;;;;4.26;68.07;101527.50;5041290;28;20395;-73
2022/02/12 06:24:31;;;;;;;60.40;40.80;;;;;;;4.15;67.70;101529.66;5042618;28;20052;-72
2022/02/12 06:26:57;;;;;;;52.42;37.65;;;;;;;4.33;67.35;101517.47;5036231;28;20106;-72
2022/02/12 06:29:26;;;;;;;51.17;39.92;;;;;;;4.35;67.22;101522.72;5037528;28;20375;-72
2022/02/12 06:31:51;;;;;;;46.85;38.33;;;;;;;4.17;67.63;101505.53;5035278;28;20491;-72
2022/02/12 06:34:18;;;;;;;51.15;36.88;;;;;;;4.58;67.02;101566.19;5041737;28;20155;-71
2022/02/12 06:36:43;;;;;;;63.50;39.97;;;;;;;3.96;69.60;101540.94;5052881;28;20080;-73
2022/02/12 06:39:09;;;;;;;53.22;41.80;;;;;;;3.80;70.49;101552.34;5039424;28;20122;-72
2022/02/12 06:41:35;;;;;;;58.45;41.67;;;;;;;3.37;71.38;101582.34;5037038;28;20429;-73
2022/02/12 06:44:01;;;;;;;53.58;39.25;;;;;;;3.16;72.15;101590.00;5043398;28;20456;-73
2022/02/12 06:46:26;;;;;;;55.15;38.53;;;;;;;3.86;70.99;101617.50;5043617;28;20041;-72
2022/02/12 06:48:52;;;;;;;50.28;34.15;;;;;;;3.99;70.28;101616.38;5041735;28;20461;-72
2022/02/12 06:51:18;;;;;;;50.85;34.08;;;;;;;3.74;69.18;101599.66;5032282;28;20083;-72
2022/02/12 06:53:44;;;;;;;44.25;33.88;;;;;;;4.13;69.69;101633.47;5042778;28;20464;-71
2022/02/12 06:56:10;;;;;;;54.47;34.38;;;;;;;3.48;70.20;101595.81;5045257;28;20056;-71
2022/02/12 06:58:36;;;;;;;48.90;37.22;;;;;;;3.10;72.06;101625.97;5043641;28;20044;-71
2022/02/12 07:01:01;;;;;;;51.88;39.67;;;;;;;3.58;71.86;101643.84;5057266;28;20052;-71
2022/02/12 07:03:27;;;;;;;58.97;37.20;;;;;;;3.10;72.22;101618.19;5043908;28;20040;-72
2022/02/12 07:05:53;;;;;;;58.33;37.60;;;;;;;3.37;72.39;101665.38;5045597;28;20024;-71
2022/02/12 07:08:18;;;;;;;49.72;34.13;;;;;;;3.56;70.99;101654.19;5045945;28;20039;-71
2022/02/12 07:10:44;;;;;;;56.03;38.55;;;;;;;3.59;71.58;101667.31;5040503;28;20522;-71
2022/02/12 07:13:12;;;;;;;42.30;35.00;;;;;;;3.43;71.12;101638.81;5049510;28;20481;-72
2022/02/12 07:15:37;;;;;;;38.60;31.45;;;;;;;4.15;70.04;101673.41;5048742;28;20040;-75
2022/02/12 07:18:05;;;;;;;45.85;34.22;;;;;;;4.15;69.36;101642.25;5045207;28;20354;-74
2022/02/12 07:20:30;;;;;;;49.78;31.63;;;;;;;4.19;69.20;101628.56;5062758;28;20029;-71
2022/02/12 07:22:56;;;;;;;52.28;33.47;;;;;;;4.79;67.67;101659.81;5041258;28;20052;-75
2022/02/12 07:25:22;;;;;;;52.60;33.55;;;;;;;5.09;66.96;101667.16;5041338;28;21241;-72
2022/02/12 07:27:53;;;;;;;38.17;28.88;;;;;;;5.10;66.67;101642.03;5039392;28;20041;-72
2022/02/12 07:30:19;;;;;;;38.47;28.00;;;;;;;5.75;65.33;101666.38;5040181;28;20499;-74
2022/02/12 07:32:52;;;;;;;31.30;23.90;;;;;;;5.70;65.01;101645.38;5061554;28;20025;-72
2022/02/12 07:35:18;;;;;;;40.70;26.02;;;;;;;5.49;65.37;101640.19;5057421;28;20052;-72
2022/02/12 07:37:46;;;;;;;34.03;24.13;;;;;;;5.61;65.88;101684.06;5051522;28;20052;-71
2022/02/12 07:40:17;;;;;;;35.05;22.38;;;;;;;5.52;65.74;101648.09;5051617;28;20040;-72
2022/02/12 07:43:24;;;;;;;25.38;20.85;;;;;;;5.65;66.20;101663.41;5042190;28;20044;-72
2022/02/12 07:46:25;;;;;;;35.53;20.13;;;;;;;5.86;65.66;101679.00;5053973;28;20064;-71
2022/02/12 07:49:02;;;;;;;32.42;20.42;;;;;;;6.20;65.49;101713.31;5048328;28;20131;-74
2022/02/12 07:51:28;;;;;;;30.33;18.58;;;;;;;6.37;65.40;101698.31;5055332;28;20074;-72
2022/02/12 07:53:53;;;;;;;20.08;16.35;;;;;;;6.29;64.99;101674.59;5054759;28;20465;-72
2022/02/12 07:56:29;;;;;;;24.23;15.32;;;;;;;6.40;65.46;101711.50;5052904;28;20025;-72
2022/02/12 07:58:55;;;;;;;25.98;15.80;;;;;;;6.62;65.00;101707.97;5045051;28;20031;-73
2022/02/12 08:01:20;;;;;;;21.88;15.43;;;;;;;6.45;64.95;101687.38;5055509;28;20033;-73
2022/02/12 08:03:46;;;;;;;22.38;16.35;;;;;;;6.58;65.89;101721.72;5054008;28;20037;-73
2022/02/12 08:08:56;;;;;;;24.17;13.55;;;;;;;7.16;63.24;101740.41;5055928;28;20039;-72
2022/02/12 08:18:05;;;;;;;31.42;8.68;;;;;;;8.03;60.17;101750.28;5043543;28;20044;-74
2022/02/12 08:20:30;;;;;;;9.27;5.63;;;;;;;7.63;59.79;101748.06;5050878;28;20107;-73
2022/02/12 08:22:56;;;;;;;11.98;3.50;;;;;;;7.80;58.50;101735.59;5049988;28;20119;-73
2022/02/12 08:25:22;;;;;;;6.45;3.88;;;;;;;7.49;58.95;101744.09;5048693;28;20481;-73
2022/02/12 08:27:48;;;;;;;17.40;4.47;;;;;;;8.06;58.32;101774.75;5050544;28;20125;-73
2022/02/12 08:30:14;;;;;;;4.65;3.47;;;;;;;7.56;58.67;101775.72;5041647;28;20048;-74
2022/02/12 08:32:41;;;;;;;5.97;3.55;;;;;;;7.61;58.70;101768.06;5045274;28;20059;-74
2022/02/12 08:35:12;;;;;;;6.35;3.25;;;;;;;7.08;60.21;101799.25;5043125;28;20059;-74
2022/02/12 08:37:42;;;;;;;24.25;14.68;;;;;;;7.75;59.77;101807.69;5054943;28;20051;-73
2022/02/12 08:40:10;;;;;;;15.93;8.50;;;;;;;8.16;58.44;101823.88;5053089;28;20049;-73
2022/02/12 08:42:36;;;;;;;13.25;7.60;;;;;;;8.61;57.03;101818.34;5042045;28;20037;-74
2022/02/12 08:45:03;;;;;;;15.95;7.32;;;;;;;8.63;56.57;101811.44;5037958;28;20041;-74
2022/02/12 08:47:40;;;;;;;9.80;5.97;;;;;;;8.85;55.62;101823.44;5047361;28;20033;-73
2022/02/12 08:50:08;;;;;;;11.30;4.53;;;;;;;8.78;55.69;101831.94;5041261;28;20127;-74
2022/02/12 08:52:35;;;;;;;8.95;5.38;;;;;;;9.01;54.16;101823.06;5039941;28;20033;-74
2022/02/12 08:55:01;;;;;;;7.43;3.60;;;;;;;8.16;55.49;101866.56;5043757;28;20033;-74
2022/02/12 08:57:26;;;;;;;13.27;3.90;;;;;;;8.23;55.80;101868.56;5060046;28;20036;-74
2022/02/12 08:59:52;;;;;;;9.45;5.55;;;;;;;8.50;55.26;101848.50;5049310;28;20425;-73
2022/02/12 09:02:18;;;;;;;9.02;5.38;;;;;;;8.39;54.68;101835.06;5040742;28;20525;-73
2022/02/12 09:04:44;;;;;;;8.10;4.70;;;;;;;8.82;53.53;101844.28;5025694;28;20538;-74
2022/02/12 09:07:10;;;;;;;12.98;4.53;;;;;;;7.77;55.09;101893.16;5029623;28;20053;-74
2022/02/12 09:09:36;;;;;;;12.00;5.28;;;;;;;8.34;54.97;101894.19;5045315;28;20072;-74
2022/02/12 09:12:02;;;;;;;10.15;3.67;;;;;;;8.27;53.79;101905.28;5045278;28;20477;-74
2022/02/12 09:14:27;;;;;;;5.35;3.45;;;;;;;7.79;55.28;101906.25;5048834;28;20032;-73
2022/02/12 09:16:53;;;;;;;6.82;4.20;;;;;;;8.22;53.98;101881.59;5049463;28;20041;-73
2022/02/12 09:19:20;;;;;;;13.32;3.50;;;;;;;8.36;54.10;101895.13;5042926;28;20481;-76
2022/02/12 09:21:45;;;;;;;6.93;3.67;;;;;;;8.32;54.23;101906.31;5052524;28;20476;-75
2022/02/12 09:24:11;;;;;;;5.60;3.33;;;;;;;8.21;54.50;101938.22;5047947;28;20051;-75
2022/02/12 09:26:38;;;;;;;11.73;3.50;;;;;;;8.47;53.84;101942.59;5047534;28;20029;-72
2022/02/12 09:29:05;;;;;;;10.38;3.58;;;;;;;7.79;54.41;101901.03;5050275;28;20085;-75
2022/02/12 09:31:31;;;;;;;10.85;4.07;;;;;;;7.94;54.35;101913.75;5047247;28;20079;-74
2022/02/12 09:33:59;;;;;;;4.93;2.90;;;;;;;7.92;54.59;101923.25;5047744;28;20448;-73
2022/02/12 09:36:26;;;;;;;6.50;4.13;;;;;;;7.90;54.60;101928.44;5059584;28;20037;-73
2022/02/12 09:38:53;;;;;;;8.05;3.53;;;;;;;7.13;56.57;101935.16;5047489;28;20025;-74
2022/02/12 09:41:23;;;;;;;7.47;4.13;;;;;;;7.97;55.52;101942.59;5044584;28;20479;-74
2022/02/12 09:43:49;;;;;;;7.80;4.47;;;;;;;8.17;54.60;101931.13;5045796;28;20071;-73
2022/02/12 09:46:28;;;;;;;8.18;4.18;;;;;;;7.81;54.76;101896.75;5069535;28;20043;-71
2022/02/12 09:48:54;;;;;;;16.98;4.60;;;;;;;7.95;54.68;101908.56;5044690;28;20037;-70
2022/02/12 09:51:23;;;;;;;7.45;3.72;;;;;;;8.38;54.31;101943.13;5052773;28;20075;-70
2022/02/12 09:54:22;;;;;;;11.75;4.18;;;;;;;8.49;53.98;101939.19;5048992;28;20017;-70
2022/02/12 09:57:07;;;;;;;10.13;4.68;;;;;;;8.14;55.04;101953.66;5040437;28;20029;-75
2022/02/12 09:59:32;;;;;;;6.40;4.40;;;;;;;8.15;55.01;101934.53;5047466;28;20088;-73
2022/02/12 10:01:58;;;;;;;9.18;5.32;;;;;;;8.13;54.66;101920.50;5048857;28;20190;-73
2022/02/12 10:04:25;;;;;;;11.40;5.65;;;;;;;7.98;55.16;101936.53;5047998;28;20041;-73
2022/02/12 10:06:51;;;;;;;10.27;4.43;;;;;;;8.55;54.27;101949.84;5044501;28;20028;-73
2022/02/12 10:09:17;;;;;;;9.82;4.55;;;;;;;8.31;53.69;101910.69;5045475;28;20132;-74
2022/02/12 10:11:45;;;;;;;8.60;4.43;;;;;;;8.29;54.08;101959.41;5040777;28;20041;-73
2022/02/12 10:14:14;;;;;;;9.45;4.68;;;;;;;8.21;53.69;101953.91;5049615;28;20029;-73
2022/02/12 10:17:15;;;;;;;5.47;3.70;;;;;;;8.42;53.15;101960.75;5054381;28;20029;-72
2022/02/12 10:19:44;;;;;;;11.73;4.97;;;;;;;8.19;53.09;101945.16;5037721;28;20091;-73
2022/02/12 10:22:13;;;;;;;10.65;4.82;;;;;;;8.19;52.68;101962.53;5049116;28;20460;-72
2022/02/12 10:25:04;;;;;;;5.80;3.70;;;;;;;7.60;53.21;101936.03;5046176;28;20033;-72
2022/02/12 10:27:30;;;;;;;15.35;4.25;;;;;;;8.26;52.03;101933.13;5045200;28;20037;-73
2022/02/12 10:30:39;;;;;;;6.53;4.10;;;;;;;8.74;51.77;101963.56;5051555;28;20032;-72
2022/02/12 10:33:07;;;;;;;23.20;4.63;;;;;;;8.79;50.96;101957.59;5067086;28;20044;-74
2022/02/12 10:35:34;;;;;;;6.90;4.45;;;;;;;8.49;50.94;101961.84;5047642;28;20083;-74
2022/02/12 10:38:05;;;;;;;7.30;5.13;;;;;;;8.60;50.52;101944.78;5051942;28;20045;-74
2022/02/12 10:40:32;;;;;;;10.25;5.18;;;;;;;8.54;50.66;101944.56;5046587;28;20444;-75
2022/02/12 10:42:58;;;;;;;9.77;4.75;;;;;;;8.87;50.18;101963.09;5043855;28;20040;-73
2022/02/12 10:45:26;;;;;;;6.05;4.10;;;;;;;8.88;49.54;101941.31;5061270;28;20048;-76
2022/02/12 10:48:33;;;;;;;9.55;5.13;;;;;;;8.76;49.45;101931.34;5064025;28;20075;-73
2022/02/12 10:51:04;;;;;;;9.45;4.75;;;;;;;8.17;50.18;101949.44;5041648;28;20025;-74
2022/02/12 10:53:30;;;;;;;12.02;5.60;;;;;;;8.26;50.15;101982.81;5047512;28;20087;-73
2022/02/12 10:56:00;;;;;;;7.90;4.32;;;;;;;7.42;51.26;101949.31;5049293;28;20124;-74
2022/02/12 10:58:31;;;;;;;13.30;6.18;;;;;;;8.13;50.86;101970.19;5051426;28;20087;-70
2022/02/12 11:00:58;;;;;;;8.00;5.95;;;;;;;8.49;49.48;101988.88;5041478;28;20060;-75
2022/02/12 11:03:25;;;;;;;11.43;5.88;;;;;;;7.89;49.95;101968.47;5035187;28;20037;-75
2022/02/12 11:05:52;;;;;;;9.20;5.75;;;;;;;8.45;49.84;101997.47;5040328;28;20020;-75
2022/02/12 11:08:23;;;;;;;13.05;6.47;;;;;;;7.83;50.50;101974.34;5044574;28;20044;-73
2022/02/12 11:10:50;;;;;;;15.82;6.30;;;;;;;8.23;49.62;101985.34;5049496;28;20064;-74
2022/02/12 11:13:34;;;;;;;16.60;7.00;;;;;;;7.97;50.55;101997.50;5051520;28;20275;-73
2022/02/12 11:19:32;;;;;;;9.63;6.75;;;;;;;7.88;50.22;101963.19;5055005;28;20119;-73
2022/02/12 11:22:30;;;;;;;14.13;7.38;;;;;;;7.57;51.26;101994.28;5057879;28;20056;-73
2022/02/12 11:24:57;;;;;;;13.48;8.52;;;;;;;7.97;50.28;101987.91;5060458;28;20463;-73
2022/02/12 11:27:29;;;;;;;18.83;7.82;;;;;;;7.91;49.94;102000.75;5046456;28;20086;-72
2022/02/12 11:30:19;;;;;;;9.85;5.78;;;;;;;8.18;49.32;101979.94;5054681;28;20409;-72
2022/02/12 11:32:45;;;;;;;11.52;4.85;;;;;;;8.06;49.24;101976.03;5052839;28;20033;-73
2022/02/12 11:35:10;;;;;;;14.38;6.30;;;;;;;8.06;49.50;102010.91;5050664;28;20028;-72
2022/02/12 11:37:49;;;;;;;11.93;6.03;;;;;;;7.80;49.25;101982.09;5056381;28;20436;-72
2022/02/12 11:40:28;;;;;;;11.05;5.55;;;;;;;7.76;48.83;101992.38;5057817;28;20041;-73
2022/02/12 11:43:03;;;;;;;9.13;4.47;;;;;;;7.24;50.85;102017.41;5052056;28;20044;-72
2022/02/12 11:45:36;;;;;;;9.45;4.65;;;;;;;7.63;49.84;101992.72;5049707;28;20043;-72
2022/02/12 11:51:30;;;;;;;8.00;5.00;;;;;;;7.57;50.19;102032.59;5057833;28;20047;-73